Time;durP1;ratioP1;P1;durP2;ratioP2;P2;SDS_P1;SDS_P2;PMS_P1;PMS_P2;Temp;Humidity;BMP_temperature;BMP_pressure;BME280_temperature;BME280_humidity;BME280_pressure;Samples;Min_cycle;Max_cycle;Signal;HPM_P1;HPM_P2
2022/05/05 00:00:13;;;;;;;10.90;3.65;;;;;;;3.26;100.00;101802.63;5022682;28;20037;-77
2022/05/05 00:02:38;;;;;;;9.60;3.70;;;;;;;3.18;100.00;101800.38;4997369;28;20116;-76
2022/05/05 00:05:05;;;;;;;6.97;3.38;;;;;;;3.12;100.00;101798.06;5005349;28;20136;-77
2022/05/05 00:07:31;;;;;;;6.65;3.38;;;;;;;3.07;100.00;101794.84;5023580;28;20116;-75
2022/05/05 00:09:57;;;;;;;7.00;3.47;;;;;;;3.11;100.00;101797.25;5009023;28;20076;-76
2022/05/05 00:15:07;;;;;;;9.75;3.60;;;;;;;3.19;100.00;101814.19;5017159;28;20045;-76
2022/05/05 00:17:34;;;;;;;13.27;4.55;;;;;;;3.13;100.00;101799.78;4986914;28;20037;-76
2022/05/05 00:20:00;;;;;;;7.22;3.80;;;;;;;3.15;100.00;101817.84;5003907;28;20057;-77
2022/05/05 00:22:26;;;;;;;12.27;3.67;;;;;;;3.05;100.00;101805.31;5019589;28;20037;-77
2022/05/05 00:24:52;;;;;;;8.07;3.53;;;;;;;3.00;100.00;101809.88;5013949;28;20134;-77
2022/05/05 00:27:18;;;;;;;6.28;3.45;;;;;;;2.89;100.00;101796.56;5023957;28;20037;-76
2022/05/05 00:29:44;;;;;;;5.82;3.25;;;;;;;3.00;100.00;101799.50;5022828;28;20107;-77
2022/05/05 00:32:11;;;;;;;7.55;3.60;;;;;;;2.99;100.00;101802.16;5017014;28;20037;-76
2022/05/05 00:34:37;;;;;;;7.97;4.03;;;;;;;2.96;100.00;101807.47;5017679;28;20857;-76
2022/05/05 00:37:03;;;;;;;9.00;3.70;;;;;;;2.99;100.00;101810.75;5007963;28;20029;-77
2022/05/05 00:39:29;;;;;;;7.55;3.67;;;;;;;3.00;100.00;101812.47;5006269;28;20060;-75
2022/05/05 00:41:54;;;;;;;8.77;4.45;;;;;;;2.93;100.00;101813.66;5025689;28;20494;-76
2022/05/05 00:44:20;;;;;;;10.93;4.20;;;;;;;2.84;100.00;101814.91;5002731;28;20045;-75
2022/05/05 00:46:50;;;;;;;8.27;3.80;;;;;;;2.91;100.00;101813.72;5007921;28;20044;-76
2022/05/05 00:49:17;;;;;;;9.88;3.50;;;;;;;2.82;100.00;101814.13;5006574;28;20033;-75
2022/05/05 00:51:43;;;;;;;7.05;3.58;;;;;;;2.86;100.00;101809.66;5002327;28;20042;-76
2022/05/05 00:54:09;;;;;;;7.40;3.63;;;;;;;2.80;100.00;101812.53;5018003;28;20485;-74
2022/05/05 00:56:36;;;;;;;10.45;3.88;;;;;;;2.91;100.00;101818.91;5008071;28;20128;-77
2022/05/05 00:59:02;;;;;;;10.13;3.63;;;;;;;2.86;100.00;101818.28;5010731;28;20041;-74
2022/05/05 01:01:28;;;;;;;10.43;4.45;;;;;;;2.74;100.00;101808.47;5032114;28;20085;-77
2022/05/05 01:03:54;;;;;;;11.93;3.75;;;;;;;2.68;100.00;101800.97;5004657;28;20120;-75
2022/05/05 01:06:20;;;;;;;8.27;3.25;;;;;;;2.72;100.00;101820.66;5016526;28;20552;-76
2022/05/05 01:08:46;;;;;;;9.18;3.30;;;;;;;2.63;100.00;101813.28;5024879;28;20112;-76
2022/05/05 01:11:12;;;;;;;10.75;3.92;;;;;;;2.59;100.00;101820.38;5021922;28;20037;-74
2022/05/05 01:13:39;;;;;;;10.00;3.55;;;;;;;2.62;100.00;101820.25;5007433;28;20044;-75
2022/05/05 01:16:06;;;;;;;9.43;3.70;;;;;;;2.58;100.00;101817.84;5011741;28;20029;-76
2022/05/05 01:18:32;;;;;;;8.32;3.63;;;;;;;2.61;100.00;101815.94;5008866;28;20068;-76
2022/05/05 01:20:58;;;;;;;11.02;3.83;;;;;;;2.65;100.00;101806.28;5009675;28;20867;-76
2022/05/05 01:23:24;;;;;;;11.05;3.97;;;;;;;2.60;100.00;101810.84;5027378;28;20068;-76
2022/05/05 01:28:39;;;;;;;9.48;4.15;;;;;;;2.50;100.00;101821.59;5042935;28;20084;-75
2022/05/05 01:31:07;;;;;;;9.65;3.95;;;;;;;2.45;100.00;101809.75;5010840;28;20053;-76
2022/05/05 01:33:33;;;;;;;8.25;3.58;;;;;;;2.34;100.00;101816.25;5025796;28;20033;-75
2022/05/05 01:35:59;;;;;;;12.23;3.92;;;;;;;2.27;100.00;101814.84;5019790;28;20426;-74
2022/05/05 01:38:30;;;;;;;8.30;4.22;;;;;;;2.25;100.00;101806.31;5017650;28;20039;-76
2022/05/05 01:40:56;;;;;;;13.32;4.45;;;;;;;2.30;100.00;101827.66;5006547;28;20041;-76
2022/05/05 01:43:22;;;;;;;7.75;4.47;;;;;;;2.34;100.00;101836.16;5019403;28;20036;-78
2022/05/05 01:45:48;;;;;;;8.35;4.80;;;;;;;2.33;100.00;101826.69;5009701;28;20411;-75
2022/05/05 01:48:14;;;;;;;7.85;4.40;;;;;;;2.29;100.00;101830.31;5014616;28;20029;-75
2022/05/05 01:50:40;;;;;;;9.55;4.20;;;;;;;2.39;100.00;101831.59;5026025;28;20030;-77
2022/05/05 01:53:06;;;;;;;6.00;3.70;;;;;;;2.51;100.00;101828.47;5027868;28;20633;-74
2022/05/05 01:55:33;;;;;;;7.43;3.67;;;;;;;2.48;100.00;101836.38;5013307;28;20051;-75
2022/05/05 01:58:01;;;;;;;8.98;3.78;;;;;;;2.40;100.00;101833.28;5030206;28;20038;-75
2022/05/05 02:00:27;;;;;;;10.10;4.10;;;;;;;2.40;100.00;101828.09;5043727;28;20104;-76
2022/05/05 02:02:53;;;;;;;13.60;4.22;;;;;;;2.38;100.00;101834.28;5035581;28;20037;-76
2022/05/05 02:05:20;;;;;;;13.15;4.20;;;;;;;2.27;100.00;101832.13;5011541;28;20109;-75
2022/05/05 02:07:46;;;;;;;10.68;4.00;;;;;;;2.25;100.00;101842.56;5011684;28;20030;-75
2022/05/05 02:10:15;;;;;;;10.07;3.97;;;;;;;2.27;100.00;101850.25;5012774;28;20064;-76
2022/05/05 02:12:42;;;;;;;10.57;4.57;;;;;;;2.23;100.00;101856.47;5019766;28;20030;-75
2022/05/05 02:15:10;;;;;;;10.40;4.28;;;;;;;2.17;100.00;101844.63;5020353;28;20032;-76
2022/05/05 02:17:37;;;;;;;7.80;5.05;;;;;;;2.21;100.00;101858.28;5007491;28;20034;-77
2022/05/05 02:20:05;;;;;;;6.65;4.97;;;;;;;2.15;100.00;101856.81;5008823;28;20037;-78
2022/05/05 02:22:31;;;;;;;9.65;4.80;;;;;;;2.15;100.00;101869.75;5009218;28;20056;-76
2022/05/05 02:24:57;;;;;;;12.48;4.72;;;;;;;2.13;100.00;101863.81;5025300;28;20498;-76
2022/05/05 02:27:23;;;;;;;8.30;4.18;;;;;;;2.09;100.00;101860.50;5024080;28;20042;-76
2022/05/05 02:29:50;;;;;;;15.00;5.97;;;;;;;2.04;100.00;101861.59;5027236;28;20117;-76
2022/05/05 02:32:17;;;;;;;8.50;4.70;;;;;;;1.94;100.00;101861.97;5008689;28;20037;-77
2022/05/05 02:34:43;;;;;;;10.07;4.15;;;;;;;1.90;100.00;101865.59;5003244;28;20125;-76
2022/05/05 02:39:53;;;;;;;10.90;4.90;;;;;;;1.86;100.00;101864.00;5005655;28;20104;-76
2022/05/05 02:42:20;;;;;;;5.88;3.97;;;;;;;1.84;100.00;101865.00;5024243;28;20079;-75
2022/05/05 02:44:46;;;;;;;8.77;4.47;;;;;;;1.87;100.00;101862.28;5023285;28;20136;-74
2022/05/05 02:47:12;;;;;;;10.38;4.85;;;;;;;1.91;100.00;101869.84;5026935;28;20618;-75
2022/05/05 02:49:39;;;;;;;9.93;5.13;;;;;;;1.90;100.00;101872.50;5019918;28;20056;-75
2022/05/05 02:52:09;;;;;;;12.13;4.90;;;;;;;1.90;100.00;101863.00;5011404;28;20037;-76
2022/05/05 02:54:47;;;;;;;9.52;5.07;;;;;;;1.84;100.00;101862.41;5027972;28;20036;-77
2022/05/05 02:57:23;;;;;;;10.40;4.97;;;;;;;1.84;100.00;101860.66;5022400;28;20379;-77
2022/05/05 02:59:55;;;;;;;8.98;4.93;;;;;;;1.81;100.00;101867.69;5011829;28;20041;-74
2022/05/05 03:02:21;;;;;;;9.43;4.75;;;;;;;1.80;100.00;101863.44;5031008;28;20537;-78
2022/05/05 03:04:47;;;;;;;9.02;4.72;;;;;;;1.74;100.00;101859.34;5026778;28;20037;-76
2022/05/05 03:07:14;;;;;;;9.70;5.78;;;;;;;1.83;100.00;101863.28;5011387;28;20117;-75
2022/05/05 03:09:40;;;;;;;9.85;5.68;;;;;;;1.82;100.00;101865.03;5006306;28;20037;-76
2022/05/05 03:12:07;;;;;;;10.98;5.85;;;;;;;1.77;100.00;101866.97;5020515;28;20040;-76
2022/05/05 03:14:33;;;;;;;9.85;5.63;;;;;;;1.73;100.00;101861.09;5022469;28;20044;-78
2022/05/05 03:17:01;;;;;;;11.50;6.03;;;;;;;1.75;100.00;101868.78;5028292;28;20029;-77
2022/05/05 03:19:27;;;;;;;8.90;5.82;;;;;;;1.73;100.00;101866.28;5021186;28;20092;-77
2022/05/05 03:21:53;;;;;;;12.55;5.85;;;;;;;1.72;100.00;101869.75;4989022;28;20033;-77
2022/05/05 03:24:20;;;;;;;9.52;5.80;;;;;;;1.69;100.00;101875.03;4993866;28;20656;-77
2022/05/05 03:26:46;;;;;;;9.88;5.90;;;;;;;1.68;100.00;101869.97;5020768;28;20040;-77
2022/05/05 03:29:11;;;;;;;13.65;5.75;;;;;;;1.68;100.00;101873.38;5022395;28;20033;-77
2022/05/05 03:31:37;;;;;;;10.80;5.90;;;;;;;1.68;100.00;101868.19;5005201;28;20037;-77
2022/05/05 03:34:04;;;;;;;7.70;5.03;;;;;;;1.74;100.00;101875.72;5034324;28;20474;-77
2022/05/05 03:36:30;;;;;;;8.88;5.28;;;;;;;1.82;100.00;101877.16;5019798;28;20112;-76
2022/05/05 03:38:56;;;;;;;11.60;5.60;;;;;;;1.76;100.00;101878.25;5026447;28;20067;-75
2022/05/05 03:41:22;;;;;;;9.23;5.25;;;;;;;1.76;100.00;101875.66;5020516;28;21194;-75
2022/05/05 03:43:48;;;;;;;15.35;5.95;;;;;;;1.68;100.00;101878.53;5021274;28;20510;-76
2022/05/05 03:46:14;;;;;;;12.25;6.68;;;;;;;1.66;100.00;101875.19;5009632;28;20037;-75
2022/05/05 03:48:40;;;;;;;10.00;6.25;;;;;;;1.61;100.00;101881.44;5028044;28;20121;-75
2022/05/05 03:51:05;;;;;;;11.57;6.72;;;;;;;1.55;100.00;101875.59;5008185;28;20502;-76
2022/05/05 03:53:32;;;;;;;12.07;7.03;;;;;;;1.54;100.00;101879.09;5010164;28;20037;-75
2022/05/05 03:55:57;;;;;;;12.15;7.00;;;;;;;1.58;100.00;101879.78;5028155;28;20033;-76
2022/05/05 03:58:25;;;;;;;15.98;6.70;;;;;;;1.60;100.00;101885.78;5008124;28;20038;-76
2022/05/05 04:00:50;;;;;;;13.25;7.45;;;;;;;1.63;100.00;101872.72;5008847;28;20042;-77
2022/05/05 04:03:31;;;;;;;12.52;6.47;;;;;;;1.68;100.00;101883.72;5013185;28;20040;-77
2022/05/05 04:06:03;;;;;;;11.65;7.57;;;;;;;1.77;100.00;101887.66;5014790;28;20046;-76
2022/05/05 04:08:29;;;;;;;12.13;7.38;;;;;;;1.83;100.00;101895.19;5007121;28;20030;-74
2022/05/05 04:10:55;;;;;;;12.75;7.38;;;;;;;1.86;100.00;101897.66;5026477;28;20037;-78
2022/05/05 04:13:21;;;;;;;12.98;7.85;;;;;;;1.87;100.00;101891.59;5026209;28;20037;-76
2022/05/05 04:15:47;;;;;;;9.30;6.93;;;;;;;1.95;100.00;101894.69;5006372;28;20034;-74
2022/05/05 04:18:13;;;;;;;12.40;6.70;;;;;;;2.00;100.00;101898.84;5007652;28;20029;-76
2022/05/05 04:20:42;;;;;;;22.25;7.88;;;;;;;2.13;100.00;101900.03;5020729;28;20060;-75
2022/05/05 04:23:08;;;;;;;14.48;7.72;;;;;;;2.21;100.00;101894.53;5025398;28;20037;-77
2022/05/05 04:25:39;;;;;;;9.57;6.68;;;;;;;2.31;100.00;101899.25;5026276;28;20104;-77
2022/05/05 04:28:07;;;;;;;10.98;6.88;;;;;;;2.39;100.00;101898.09;5024432;28;20041;-75
2022/05/05 04:30:32;;;;;;;11.00;7.00;;;;;;;2.50;100.00;101896.72;5024833;28;20040;-76
2022/05/05 04:32:58;;;;;;;12.70;7.65;;;;;;;2.66;100.00;101904.69;5011187;28;20033;-77
2022/05/05 04:35:23;;;;;;;9.68;7.93;;;;;;;2.75;100.00;101903.44;5026460;28;20053;-77
2022/05/05 04:37:49;;;;;;;13.77;8.32;;;;;;;2.97;100.00;101907.66;5017318;28;20144;-74
2022/05/05 04:40:15;;;;;;;15.95;9.02;;;;;;;3.14;100.00;101919.88;5011375;28;20088;-78
2022/05/05 04:42:41;;;;;;;15.32;8.35;;;;;;;3.15;100.00;101917.22;5009167;28;20539;-77
2022/05/05 04:45:07;;;;;;;20.20;9.23;;;;;;;3.20;100.00;101916.97;5005788;28;20485;-76
2022/05/05 04:47:33;;;;;;;13.98;8.52;;;;;;;3.33;100.00;101914.69;5012092;28;20187;-76
2022/05/05 04:49:58;;;;;;;15.77;9.45;;;;;;;3.45;100.00;101909.75;5031886;28;20116;-77
2022/05/05 04:52:24;;;;;;;14.68;9.35;;;;;;;3.52;100.00;101910.31;5029677;28;20376;-79
2022/05/05 04:54:51;;;;;;;20.60;10.95;;;;;;;3.80;100.00;101925.41;4997440;28;20052;-76
2022/05/05 04:57:17;;;;;;;15.57;9.98;;;;;;;4.00;100.00;101926.22;5026349;28;20453;-77
2022/05/05 04:59:43;;;;;;;18.88;11.38;;;;;;;4.11;100.00;101926.53;5010794;28;20084;-78
2022/05/05 05:02:10;;;;;;;15.77;10.38;;;;;;;4.15;100.00;101929.81;5031028;28;20033;-76
2022/05/05 05:04:35;;;;;;;14.48;10.38;;;;;;;4.14;100.00;101922.91;5021378;28;20173;-77
2022/05/05 05:07:01;;;;;;;16.98;10.65;;;;;;;4.23;100.00;101931.09;5032069;28;20461;-76
2022/05/05 05:09:26;;;;;;;20.67;12.13;;;;;;;4.41;100.00;101929.34;5009169;28;20780;-76
2022/05/05 05:11:52;;;;;;;20.65;13.02;;;;;;;4.55;100.00;101931.22;5020635;28;20144;-77
2022/05/05 05:14:18;;;;;;;17.58;12.65;;;;;;;4.64;100.00;101938.56;5023476;28;20388;-77
2022/05/05 05:16:43;;;;;;;19.70;12.15;;;;;;;4.80;100.00;101945.56;5025514;28;20140;-77
2022/05/05 05:19:09;;;;;;;22.00;12.25;;;;;;;4.92;100.00;101942.34;5017085;28;20681;-77
2022/05/05 05:21:35;;;;;;;19.77;12.38;;;;;;;5.10;100.00;101940.50;5013638;28;20055;-78
2022/05/05 05:24:02;;;;;;;20.15;11.85;;;;;;;5.28;100.00;101945.69;5009129;28;20040;-79
2022/05/05 05:26:28;;;;;;;21.50;11.95;;;;;;;5.47;100.00;101957.59;5006669;28;20399;-79
2022/05/05 05:28:54;;;;;;;21.25;12.13;;;;;;;5.60;100.00;101947.34;5027635;28;20135;-77
2022/05/05 05:31:21;;;;;;;22.80;11.18;;;;;;;5.68;100.00;101948.69;5010191;28;20128;-78
2022/05/05 05:33:47;;;;;;;21.00;11.07;;;;;;;5.81;100.00;101962.72;5004864;28;20061;-77
2022/05/05 05:36:13;;;;;;;24.02;10.88;;;;;;;6.03;100.00;101958.00;5013916;28;20064;-76
2022/05/05 05:38:39;;;;;;;20.65;10.13;;;;;;;6.19;100.00;101965.75;5010162;28;20542;-79
2022/05/05 05:41:05;;;;;;;21.02;9.85;;;;;;;6.41;100.00;101970.59;5029956;28;20057;-79
2022/05/05 05:43:30;;;;;;;16.73;8.82;;;;;;;6.54;100.00;101975.94;5021692;28;20038;-77
2022/05/05 05:45:56;;;;;;;21.20;7.85;;;;;;;6.54;100.00;101983.75;5028176;28;20578;-79
2022/05/05 05:48:22;;;;;;;14.75;6.65;;;;;;;6.38;100.00;101970.75;5012820;28;20042;-79
2022/05/05 05:50:47;;;;;;;11.48;5.95;;;;;;;6.38;100.00;101975.97;4990951;28;20060;-77
2022/05/05 05:53:13;;;;;;;10.90;3.17;;;;;;;6.47;100.00;101984.19;5023493;28;20037;-79
2022/05/05 05:55:39;;;;;;;13.45;3.10;;;;;;;6.52;100.00;101982.16;4998114;28;20025;-77
2022/05/05 05:58:05;;;;;;;6.03;2.00;;;;;;;6.62;98.61;101988.50;5011305;28;20047;-78
2022/05/05 06:00:32;;;;;;;8.85;2.33;;;;;;;6.79;99.40;101980.50;5019740;28;20577;-77
2022/05/05 06:05:42;;;;;;;4.65;1.80;;;;;;;7.04;94.53;101981.66;5032319;28;20037;-77
2022/05/05 06:08:08;;;;;;;11.52;2.25;;;;;;;7.17;93.37;101986.97;5028968;28;20029;-78
2022/05/05 06:10:35;;;;;;;6.88;1.70;;;;;;;7.33;95.13;101977.25;5003607;28;20029;-78
2022/05/05 06:13:00;;;;;;;6.07;1.95;;;;;;;7.49;90.54;101987.56;5007216;28;20061;-79
2022/05/05 06:15:26;;;;;;;7.28;1.88;;;;;;;7.65;91.48;101997.91;5010254;28;20713;-79
2022/05/05 06:17:52;;;;;;;9.30;1.48;;;;;;;7.74;89.57;101992.09;5024876;28;20041;-77
2022/05/05 06:20:18;;;;;;;10.95;2.13;;;;;;;7.86;90.51;102000.94;5009516;28;20052;-77
2022/05/05 06:22:44;;;;;;;7.50;1.98;;;;;;;8.13;89.63;102000.09;5026095;28;20030;-77
2022/05/05 06:25:13;;;;;;;7.63;1.80;;;;;;;8.14;87.89;102000.00;5012617;28;20032;-77
2022/05/05 06:27:40;;;;;;;6.68;1.63;;;;;;;8.19;85.28;102004.91;5040624;28;20033;-78
2022/05/05 06:30:13;;;;;;;8.48;1.80;;;;;;;8.37;85.99;102008.09;5009223;28;20036;-78
2022/05/05 06:32:39;;;;;;;;;;;;;;;8.54;86.57;102009.63;5003285;28;20034;-79
2022/05/05 06:35:05;;;;;;;14.15;1.88;;;;;;;8.55;85.39;101999.06;5011783;28;19947;-77
2022/05/05 06:37:30;;;;;;;6.22;1.60;;;;;;;8.76;85.05;102011.66;5022609;28;20079;-78
2022/05/05 06:39:56;;;;;;;8.07;2.13;;;;;;;8.67;85.35;101999.19;5008139;28;20536;-81
2022/05/05 06:42:22;;;;;;;9.30;1.70;;;;;;;8.75;84.65;102012.59;5012480;28;20041;-82
2022/05/05 06:44:48;;;;;;;6.32;1.40;;;;;;;8.98;85.24;102002.34;5010535;28;20057;-78
2022/05/05 06:47:14;;;;;;;5.85;1.52;;;;;;;9.18;82.53;102008.81;5010169;28;20462;-78
2022/05/05 06:49:40;;;;;;;6.95;1.85;;;;;;;9.20;83.62;101999.91;5002511;28;20061;-78
2022/05/05 06:52:06;;;;;;;7.00;1.50;;;;;;;9.38;81.83;102008.28;5022389;28;20064;-79
2022/05/05 06:54:31;;;;;;;9.85;1.95;;;;;;;9.44;80.86;102001.75;5021108;28;20060;-78
2022/05/05 06:56:57;;;;;;;9.05;1.67;;;;;;;9.24;80.33;102014.44;5026563;28;20032;-77
2022/05/05 06:59:24;;;;;;;8.55;1.60;;;;;;;9.33;82.02;102011.19;5024161;28;20459;-75
2022/05/05 07:01:53;;;;;;;9.75;2.00;;;;;;;9.51;80.83;102005.59;5026918;28;20487;-76
2022/05/05 07:07:11;;;;;;;8.43;2.10;;;;;;;9.93;77.84;102019.22;5021715;28;20495;-76
2022/05/05 07:12:22;;;;;;;6.30;1.65;;;;;;;9.85;82.02;102021.53;5020544;28;20034;-79
2022/05/05 07:14:48;;;;;;;7.97;1.50;;;;;;;9.67;80.07;102018.47;5020046;28;20577;-78
2022/05/05 07:17:13;;;;;;;8.07;1.70;;;;;;;9.89;80.65;102015.16;5015775;28;20048;-78
2022/05/05 07:19:40;;;;;;;9.48;2.08;;;;;;;9.89;78.46;102015.16;5006501;28;20029;-77
2022/05/05 07:22:06;;;;;;;7.88;1.80;;;;;;;9.84;78.93;102023.31;5025005;28;20049;-77
2022/05/05 07:24:32;;;;;;;7.57;2.17;;;;;;;10.11;77.95;102025.75;5012977;28;20119;-78
2022/05/05 07:26:59;;;;;;;7.07;1.80;;;;;;;10.27;79.06;102028.06;5008125;28;20044;-77
2022/05/05 07:29:26;;;;;;;5.10;1.60;;;;;;;10.18;77.09;102031.38;5011510;28;20033;-76
2022/05/05 07:31:52;;;;;;;6.03;1.65;;;;;;;10.12;78.06;102031.81;4983863;28;20053;-76
2022/05/05 07:34:18;;;;;;;9.77;1.73;;;;;;;10.02;77.17;102023.78;5005624;28;20044;-77
2022/05/05 07:36:44;;;;;;;5.88;1.75;;;;;;;9.82;78.71;102025.22;5022822;28;20029;-77
2022/05/05 07:39:10;;;;;;;6.22;1.60;;;;;;;9.97;78.91;102033.78;5022539;28;20079;-77
2022/05/05 07:41:36;;;;;;;8.23;1.77;;;;;;;9.84;76.66;102032.97;5026893;28;20313;-77
2022/05/05 07:44:04;;;;;;;9.77;2.00;;;;;;;9.84;78.25;102032.97;5010568;28;20048;-77
2022/05/05 07:46:30;;;;;;;6.43;1.85;;;;;;;10.16;78.48;102032.44;5026300;28;20033;-79
2022/05/05 07:48:56;;;;;;;5.53;1.73;;;;;;;10.42;76.22;102046.28;5029264;28;20033;-78
2022/05/05 07:51:21;;;;;;;11.48;1.95;;;;;;;10.45;75.81;102036.41;5023281;28;21155;-78
2022/05/05 07:54:34;;;;;;;5.70;1.38;;;;;;;10.77;75.79;102051.50;5014070;28;20062;-79
2022/05/05 07:56:33;;;;;;;5.63;1.40;;;;;;;10.81;72.89;102044.22;5026949;28;20042;-80
2022/05/05 07:58:58;;;;;;;9.05;1.80;;;;;;;10.69;73.76;102048.63;5023782;28;20100;-79
2022/05/05 08:01:24;;;;;;;9.38;1.50;;;;;;;10.72;74.85;102051.03;4991790;28;20060;-76
2022/05/05 08:03:50;;;;;;;6.15;1.45;;;;;;;10.70;77.22;102051.13;5009385;28;20037;-82
2022/05/05 08:06:15;;;;;;;8.88;1.85;;;;;;;10.86;75.35;102060.47;5024212;28;20045;-78
2022/05/05 08:08:41;;;;;;;7.20;2.00;;;;;;;10.74;73.09;102053.50;5018457;28;20372;-81
2022/05/05 08:11:07;;;;;;;3.85;1.42;;;;;;;10.66;73.73;102052.31;5027321;28;20037;-78
2022/05/05 08:13:33;;;;;;;9.73;2.03;;;;;;;10.57;73.34;102052.16;5012702;28;20037;-79
2022/05/05 08:15:59;;;;;;;10.77;1.80;;;;;;;10.68;75.88;102052.19;5027990;28;20037;-79
2022/05/05 08:18:24;;;;;;;6.80;1.73;;;;;;;10.68;74.30;102049.56;5011591;28;20112;-80
2022/05/05 08:20:51;;;;;;;7.53;1.73;;;;;;;10.82;72.81;102067.75;5011263;28;20048;-77
2022/05/05 08:23:18;;;;;;;9.45;2.05;;;;;;;10.96;75.06;102061.44;5009788;28;20033;-77
2022/05/05 08:28:28;;;;;;;10.13;1.58;;;;;;;11.26;70.75;102062.66;5018990;28;20037;-75
2022/05/05 08:30:53;;;;;;;5.50;1.60;;;;;;;11.65;73.26;102065.78;5022238;28;20037;-78
2022/05/05 08:33:19;;;;;;;7.88;1.70;;;;;;;11.98;69.03;102054.41;5020258;28;20053;-76
2022/05/05 08:35:45;;;;;;;8.75;1.83;;;;;;;11.88;68.68;102071.81;5019977;28;20034;-77
2022/05/05 08:38:10;;;;;;;8.13;1.70;;;;;;;11.83;67.08;102068.75;4991074;28;20586;-78
2022/05/05 08:40:40;;;;;;;6.57;1.60;;;;;;;11.95;71.51;102067.78;5003908;28;20065;-75
2022/05/05 08:43:06;;;;;;;8.25;1.70;;;;;;;12.37;69.60;102074.94;5005978;28;20029;-76
2022/05/05 08:45:33;;;;;;;10.70;2.13;;;;;;;12.48;67.35;102072.28;5018446;28;20558;-78
2022/05/05 08:48:06;;;;;;;7.97;1.73;;;;;;;12.42;64.95;102067.53;5009936;28;20614;-76
2022/05/05 08:50:32;;;;;;;5.63;1.98;;;;;;;12.66;65.43;102065.50;5022563;28;20064;-77
2022/05/05 08:53:00;;;;;;;8.50;2.08;;;;;;;13.00;63.57;102072.38;5024423;28;20060;-77
2022/05/05 08:55:26;;;;;;;13.10;2.33;;;;;;;12.95;64.46;102070.09;5023425;28;20109;-77
2022/05/05 08:57:51;;;;;;;7.15;1.45;;;;;;;13.11;64.05;102067.00;5024966;28;20112;-77
2022/05/05 09:00:17;;;;;;;8.45;2.17;;;;;;;13.25;63.01;102061.38;5022709;28;20117;-75
2022/05/05 09:02:44;;;;;;;14.73;2.20;;;;;;;13.27;62.01;102076.25;5004211;28;20034;-79
2022/05/05 09:05:10;;;;;;;8.32;1.95;;;;;;;13.27;62.27;102074.44;5007804;28;20030;-78
2022/05/05 09:07:52;;;;;;;5.05;1.85;;;;;;;13.08;60.29;102077.81;5027107;28;20803;-79
2022/05/05 09:10:30;;;;;;;4.40;1.73;;;;;;;13.23;61.05;102075.66;5019329;28;20091;-77
2022/05/05 09:12:59;;;;;;;6.93;1.55;;;;;;;13.41;61.27;102074.13;5022689;28;20042;-78
2022/05/05 09:15:34;;;;;;;7.63;1.90;;;;;;;13.61;60.85;102077.63;5023649;28;20119;-77
2022/05/05 09:18:12;;;;;;;7.88;1.75;;;;;;;13.83;62.30;102086.31;5027499;28;20495;-78
2022/05/05 09:20:38;;;;;;;9.02;2.20;;;;;;;14.09;61.22;102083.16;5001207;28;20487;-76
2022/05/05 09:23:04;;;;;;;10.10;2.10;;;;;;;14.16;58.35;102073.72;5022104;28;20037;-77
2022/05/05 09:25:47;;;;;;;9.50;2.30;;;;;;;14.04;59.38;102080.94;5010463;28;20033;-75
2022/05/05 09:28:24;;;;;;;6.70;1.73;;;;;;;13.91;57.48;102085.66;5016242;28;20036;-78
2022/05/05 09:30:53;;;;;;;6.72;1.65;;;;;;;13.84;58.14;102082.69;5036949;28;20029;-76
2022/05/05 09:33:34;;;;;;;6.70;2.10;;;;;;;13.90;59.23;102087.47;5010430;28;20505;-78
2022/05/05 09:36:05;;;;;;;5.18;1.55;;;;;;;14.00;58.23;102080.38;5028675;28;20044;-77
2022/05/05 09:39:03;;;;;;;11.80;1.55;;;;;;;14.30;57.65;102086.53;5020479;28;20034;-77
2022/05/05 09:41:33;;;;;;;6.85;1.80;;;;;;;14.37;57.06;102085.00;5024773;28;20042;-79
2022/05/05 09:44:11;;;;;;;4.70;1.38;;;;;;;14.61;59.73;102096.97;5042657;28;20041;-79
2022/05/05 09:46:36;;;;;;;6.72;1.63;;;;;;;14.44;56.59;102090.56;5013766;28;20065;-77
2022/05/05 09:49:12;;;;;;;6.38;1.55;;;;;;;14.37;53.29;102092.06;5013296;28;20071;-77
2022/05/05 09:51:41;;;;;;;5.90;1.90;;;;;;;14.67;52.37;102092.94;5024633;28;20455;-78
2022/05/05 09:59:40;;;;;;;7.22;1.65;;;;;;;14.45;54.84;102110.72;5034771;28;20056;-76
2022/05/05 10:02:15;;;;;;;4.90;1.40;;;;;;;14.30;53.86;102105.00;5019853;28;20037;-78
2022/05/05 10:04:49;;;;;;;10.18;1.63;;;;;;;14.56;55.02;102097.38;5041531;28;20096;-77
2022/05/05 10:07:18;;;;;;;6.78;1.50;;;;;;;14.82;52.92;102099.44;5023205;28;20029;-77
2022/05/05 10:09:46;;;;;;;9.85;1.80;;;;;;;14.92;54.91;102096.81;5033969;28;20519;-79
2022/05/05 10:12:14;;;;;;;6.65;1.63;;;;;;;15.03;52.46;102114.28;5031783;28;20037;-79
2022/05/05 10:14:41;;;;;;;6.95;1.33;;;;;;;15.27;52.25;102112.00;5010137;28;20096;-76
2022/05/05 10:17:07;;;;;;;4.75;1.38;;;;;;;15.36;53.13;102116.44;5017441;28;20038;-78
2022/05/05 10:19:34;;;;;;;4.53;1.30;;;;;;;15.50;51.16;102109.00;5036966;28;20061;-79
2022/05/05 10:22:05;;;;;;;8.20;1.35;;;;;;;15.36;49.49;102105.84;5031943;28;20041;-79
2022/05/05 10:24:51;;;;;;;9.67;1.90;;;;;;;15.50;51.43;102112.50;4996896;28;20061;-79
2022/05/05 10:27:17;;;;;;;5.97;1.73;;;;;;;15.52;50.30;102109.69;5029676;28;20044;-78
2022/05/05 10:29:45;;;;;;;5.95;1.55;;;;;;;15.48;50.57;102108.31;5051247;28;20064;-74
2022/05/05 10:32:19;;;;;;;10.93;1.67;;;;;;;15.59;48.75;102113.41;5029024;28;20041;-79
2022/05/05 10:34:51;;;;;;;12.20;1.85;;;;;;;15.66;49.41;102105.75;5016988;28;20111;-78
2022/05/05 10:37:31;;;;;;;6.50;1.70;;;;;;;15.66;49.59;102098.63;5011629;28;20048;-77
2022/05/05 10:40:03;;;;;;;7.93;1.70;;;;;;;15.75;49.19;102115.47;5024544;28;20069;-76
2022/05/05 10:42:29;;;;;;;5.85;1.77;;;;;;;15.91;49.84;102118.28;5020505;28;20029;-76
2022/05/05 10:45:08;;;;;;;5.00;1.77;;;;;;;16.10;49.86;102117.34;5041394;28;20095;-77
2022/05/05 10:47:49;;;;;;;6.82;2.50;;;;;;;16.25;50.25;102115.00;5039902;28;20083;-79
2022/05/05 10:50:36;;;;;;;6.57;1.80;;;;;;;16.57;49.35;102110.19;5022003;28;20037;-79
2022/05/05 10:53:02;;;;;;;7.47;1.70;;;;;;;16.78;48.82;102115.97;5020950;28;20087;-76
2022/05/05 10:55:40;;;;;;;5.93;1.70;;;;;;;16.89;49.25;102117.56;5025316;28;20368;-78
2022/05/05 10:58:09;;;;;;;4.15;1.67;;;;;;;16.88;47.70;102106.16;5028186;28;20037;-77
2022/05/05 11:00:44;;;;;;;4.63;1.42;;;;;;;17.02;47.73;102119.81;5008994;28;20099;-79
2022/05/05 11:03:10;;;;;;;7.95;1.80;;;;;;;17.13;50.49;102112.44;5025574;28;20061;-77
2022/05/05 11:05:37;;;;;;;4.93;1.50;;;;;;;17.30;46.83;102118.66;5030086;28;20049;-76
2022/05/05 11:08:14;;;;;;;5.75;1.48;;;;;;;17.42;48.26;102116.59;5037809;28;20040;-77
2022/05/05 11:13:42;;;;;;;9.23;1.52;;;;;;;17.95;46.33;102117.31;5022695;28;20491;-78
2022/05/05 11:22:24;;;;;;;7.03;1.98;;;;;;;17.61;46.55;102120.81;5007887;28;20061;-79
2022/05/05 11:24:52;;;;;;;3.25;1.48;;;;;;;17.69;45.92;102120.03;5024170;28;20115;-77
2022/05/05 11:27:23;;;;;;;3.92;1.70;;;;;;;17.66;46.63;102123.81;5012278;28;20064;-77
2022/05/05 11:29:56;;;;;;;3.85;1.50;;;;;;;17.47;45.06;102129.38;5031946;28;20033;-80
2022/05/05 11:32:35;;;;;;;4.75;1.50;;;;;;;17.25;46.50;102128.09;5018551;28;20195;-78
2022/05/05 11:35:01;;;;;;;7.00;1.42;;;;;;;17.44;45.67;102127.03;5024873;28;20509;-77
2022/05/05 11:37:28;;;;;;;4.57;1.30;;;;;;;17.50;45.89;102124.59;5010554;28;20033;-78
2022/05/05 11:39:54;;;;;;;5.25;1.70;;;;;;;17.69;48.28;102117.38;5015103;28;20511;-77
2022/05/05 11:42:20;;;;;;;8.95;1.80;;;;;;;17.65;45.76;102113.34;4983859;28;20048;-77
2022/05/05 11:44:46;;;;;;;4.55;1.30;;;;;;;17.49;48.47;102120.25;5023635;28;20026;-77
2022/05/05 11:47:14;;;;;;;4.43;1.70;;;;;;;17.62;45.37;102114.50;5021361;28;20037;-78
2022/05/05 11:49:43;;;;;;;4.88;2.00;;;;;;;17.78;47.67;102119.06;5008502;28;20049;-76
2022/05/05 11:52:12;;;;;;;4.18;2.00;;;;;;;17.75;46.36;102127.34;5027412;28;20087;-77
2022/05/05 11:54:38;;;;;;;6.07;2.20;;;;;;;17.66;45.37;102123.81;5018280;28;20104;-76
2022/05/05 11:57:05;;;;;;;7.78;1.95;;;;;;;18.01;47.52;102119.31;5026682;28;20120;-77
2022/05/05 12:02:18;;;;;;;5.75;2.10;;;;;;;18.34;47.01;102122.03;5023416;28;20060;-79